createdAt,value
2022-12-03T00:00:24.043Z,12.73
2022-12-03T00:02:03.881Z,12.76
2022-12-03T00:03:43.551Z,12.75
2022-12-03T00:07:03.089Z,12.75
2022-12-03T00:08:42.842Z,12.73
2022-12-03T00:10:22.592Z,12.75
2022-12-03T00:13:42.135Z,12.74
2022-12-03T00:15:21.899Z,12.77
2022-12-03T00:17:01.655Z,12.73
2022-12-03T00:18:41.430Z,12.73
2022-12-03T00:20:21.193Z,12.73
2022-12-03T00:22:00.948Z,12.73
2022-12-03T00:23:40.713Z,12.73
2022-12-03T00:25:20.477Z,12.74
2022-12-03T00:27:00.247Z,12.73
2022-12-03T00:28:40.010Z,12.74
2022-12-03T00:30:19.772Z,12.73
2022-12-03T00:31:59.539Z,12.74
2022-12-03T00:33:39.312Z,12.73
2022-12-03T00:35:19.137Z,12.73
2022-12-03T00:36:58.828Z,12.73
2022-12-03T00:38:38.597Z,12.73
2022-12-03T00:40:18.365Z,12.75
2022-12-03T00:41:58.112Z,12.73
2022-12-03T00:43:37.883Z,12.74
2022-12-03T00:45:17.713Z,12.73
2022-12-03T00:46:57.427Z,12.75
2022-12-03T00:48:37.175Z,12.73
2022-12-03T00:50:16.953Z,12.74
2022-12-03T00:51:56.709Z,12.73
2022-12-03T00:53:36.463Z,12.73
2022-12-03T00:55:16.238Z,12.74
2022-12-03T00:56:56.000Z,12.73
2022-12-03T00:58:35.804Z,12.73
2022-12-03T01:00:15.539Z,12.74
2022-12-03T01:01:55.281Z,12.73
2022-12-03T01:03:35.058Z,12.74
2022-12-03T01:05:14.813Z,12.74
2022-12-03T01:06:54.565Z,12.75
2022-12-03T01:08:34.369Z,12.72
2022-12-03T01:10:14.099Z,12.74
2022-12-03T01:11:53.851Z,12.74
2022-12-03T01:13:33.665Z,12.74
2022-12-03T01:15:13.405Z,12.73
2022-12-03T01:16:53.161Z,12.74
2022-12-03T01:18:32.919Z,12.74
2022-12-03T01:20:12.676Z,12.72
2022-12-03T01:23:32.221Z,12.72
2022-12-03T01:25:12.059Z,12.74
2022-12-03T01:26:51.743Z,12.72
2022-12-03T01:28:31.495Z,12.74
2022-12-03T01:30:11.271Z,12.74
2022-12-03T01:31:51.086Z,12.74
2022-12-03T01:33:30.795Z,12.74
2022-12-03T01:35:10.632Z,12.74
2022-12-03T01:36:50.320Z,12.74
2022-12-03T01:38:30.092Z,12.72
2022-12-03T01:40:09.861Z,12.72
2022-12-03T01:41:49.634Z,12.74
2022-12-03T01:43:29.410Z,12.73
2022-12-03T01:45:09.152Z,12.72
2022-12-03T01:46:48.901Z,12.72
2022-12-03T01:48:28.673Z,12.72
2022-12-03T01:50:08.435Z,12.75
2022-12-03T01:51:48.197Z,12.73
2022-12-03T01:53:27.969Z,12.73
2022-12-03T01:55:07.769Z,12.74
2022-12-03T01:56:47.510Z,12.74
2022-12-03T02:00:07.032Z,12.74
2022-12-03T02:01:46.770Z,12.72
2022-12-03T02:03:26.626Z,12.73
2022-12-03T02:05:06.340Z,12.74
2022-12-03T02:06:46.129Z,12.72
2022-12-03T02:10:05.615Z,12.72
2022-12-03T02:13:25.129Z,12.74
2022-12-03T02:16:44.659Z,12.72
2022-12-03T02:18:24.517Z,12.73
2022-12-03T02:20:04.175Z,12.72
2022-12-03T02:21:43.938Z,12.74
2022-12-03T02:23:23.783Z,12.72
2022-12-03T02:25:03.475Z,12.75
2022-12-03T02:26:43.232Z,12.72
2022-12-03T02:30:02.786Z,12.72
2022-12-03T02:31:42.526Z,12.71
2022-12-03T02:33:22.296Z,12.75
2022-12-03T02:35:02.072Z,12.72
2022-12-03T02:36:41.821Z,12.72
2022-12-03T02:38:21.587Z,12.72
2022-12-03T02:40:01.332Z,12.71
2022-12-03T02:41:41.123Z,12.74
2022-12-03T02:43:20.886Z,12.72
2022-12-03T02:45:00.649Z,12.71
2022-12-03T02:46:40.406Z,12.73
2022-12-03T02:48:20.221Z,12.72
2022-12-03T02:49:59.919Z,12.72
2022-12-03T02:51:39.694Z,12.74
2022-12-03T02:53:19.523Z,12.72
2022-12-03T02:54:59.227Z,12.72
2022-12-03T02:56:38.980Z,12.73
2022-12-03T02:58:18.775Z,12.71
2022-12-03T02:59:58.498Z,12.72
2022-12-03T03:01:38.280Z,12.71
2022-12-03T03:03:18.035Z,12.72
2022-12-03T03:04:57.805Z,12.74
2022-12-03T03:06:37.688Z,12.72
2022-12-03T03:08:17.340Z,12.71
2022-12-03T03:09:57.100Z,12.72
2022-12-03T03:13:16.638Z,12.71
2022-12-03T03:14:56.486Z,12.74
2022-12-03T03:16:36.168Z,12.74
2022-12-03T03:18:15.962Z,12.7
2022-12-03T03:19:55.673Z,12.72
2022-12-03T03:21:35.454Z,12.73
2022-12-03T03:23:15.232Z,12.71
2022-12-03T03:24:55.022Z,12.71
2022-12-03T03:26:34.730Z,12.72
2022-12-03T03:28:14.511Z,12.73
2022-12-03T03:29:54.258Z,12.71
2022-12-03T03:31:34.049Z,12.74
2022-12-03T03:33:13.796Z,12.72
2022-12-03T03:34:53.555Z,12.71
2022-12-03T03:36:33.320Z,12.72
2022-12-03T03:39:52.848Z,12.73
2022-12-03T03:41:32.629Z,12.71
2022-12-03T03:43:12.432Z,12.75
2022-12-03T03:44:52.127Z,12.72
2022-12-03T03:46:31.890Z,12.71
2022-12-03T03:48:11.662Z,12.71
2022-12-03T03:49:51.423Z,12.73
2022-12-03T03:51:31.180Z,12.71
2022-12-03T03:53:10.982Z,12.71
2022-12-03T03:54:50.714Z,12.71
2022-12-03T03:56:30.494Z,12.72
2022-12-03T03:59:50.015Z,12.74
2022-12-03T04:03:09.534Z,12.74
2022-12-03T04:04:49.297Z,12.73
2022-12-03T04:08:08.823Z,12.71
2022-12-03T04:09:48.584Z,12.71
2022-12-03T04:11:28.363Z,12.73
2022-12-03T04:13:08.175Z,12.71
2022-12-03T04:14:47.881Z,12.73
2022-12-03T04:16:27.638Z,12.73
2022-12-03T04:18:07.404Z,12.71
2022-12-03T04:19:47.182Z,12.72
2022-12-03T04:21:26.925Z,12.71
2022-12-03T04:26:26.220Z,12.72
2022-12-03T04:28:05.993Z,12.71
2022-12-03T04:29:45.829Z,12.71
2022-12-03T04:31:25.543Z,12.71
2022-12-03T04:33:05.292Z,12.74
2022-12-03T04:34:45.088Z,12.71
2022-12-03T04:36:24.850Z,12.75
2022-12-03T04:38:04.648Z,12.71
2022-12-03T04:39:44.339Z,12.71
2022-12-03T04:41:24.108Z,12.71
2022-12-03T04:43:03.855Z,12.71
2022-12-03T04:44:43.714Z,12.71
2022-12-03T04:46:23.386Z,12.73
2022-12-03T04:48:03.166Z,12.71
2022-12-03T04:49:42.930Z,12.71
2022-12-03T04:51:22.683Z,12.71
2022-12-03T04:53:02.448Z,12.71
2022-12-03T04:54:42.211Z,12.73
2022-12-03T04:56:21.985Z,12.71
2022-12-03T04:58:01.788Z,12.7
2022-12-03T04:59:41.537Z,12.72
2022-12-03T05:01:21.268Z,12.71
2022-12-03T05:03:01.070Z,12.72
2022-12-03T05:04:40.803Z,12.71
2022-12-03T05:06:20.593Z,12.71
2022-12-03T05:08:00.348Z,12.72
2022-12-03T05:09:40.094Z,12.71
2022-12-03T05:11:19.897Z,12.72
2022-12-03T05:12:59.662Z,12.71
2022-12-03T05:14:39.381Z,12.71
2022-12-03T05:16:19.133Z,12.7
2022-12-03T05:17:58.893Z,12.73
2022-12-03T05:19:38.660Z,12.71
2022-12-03T05:22:58.194Z,12.71
2022-12-03T05:24:37.969Z,12.73
2022-12-03T05:26:17.794Z,12.7
2022-12-03T05:27:57.560Z,12.72
2022-12-03T05:29:37.258Z,12.7
2022-12-03T05:31:17.015Z,12.71
2022-12-03T05:32:56.829Z,12.71
2022-12-03T05:34:36.544Z,12.71
2022-12-03T05:36:16.347Z,12.72
2022-12-03T05:39:35.834Z,12.71
2022-12-03T05:41:15.594Z,12.71
2022-12-03T05:42:55.365Z,12.71
2022-12-03T05:46:14.895Z,12.7
2022-12-03T05:47:54.652Z,12.7
2022-12-03T05:49:34.492Z,12.72
2022-12-03T05:51:14.263Z,12.72
2022-12-03T05:52:54.001Z,12.72
2022-12-03T05:54:33.732Z,12.71
2022-12-03T05:56:13.467Z,12.71
2022-12-03T05:57:53.236Z,12.73
2022-12-03T05:59:32.996Z,12.7
2022-12-03T06:01:12.753Z,12.7
2022-12-03T06:02:52.525Z,12.7
2022-12-03T06:04:32.299Z,12.73
2022-12-03T06:06:12.075Z,12.7
2022-12-03T06:07:51.812Z,12.72
2022-12-03T06:09:31.589Z,12.71
2022-12-03T06:11:11.341Z,12.72
2022-12-03T06:12:51.117Z,12.72
2022-12-03T06:14:30.882Z,12.7
2022-12-03T06:16:10.647Z,12.7
2022-12-03T06:17:50.398Z,12.73
2022-12-03T06:19:30.172Z,12.72
2022-12-03T06:21:09.949Z,12.73
2022-12-03T06:22:49.686Z,12.7
2022-12-03T06:24:29.452Z,12.72
2022-12-03T06:26:09.223Z,12.71
2022-12-03T06:29:28.741Z,12.72
2022-12-03T06:31:08.511Z,12.7
2022-12-03T06:32:48.285Z,12.71
2022-12-03T06:34:28.046Z,12.7
2022-12-03T06:36:07.807Z,12.73
2022-12-03T06:37:47.590Z,12.72
2022-12-03T06:39:27.379Z,12.72
2022-12-03T06:41:07.096Z,12.7
2022-12-03T06:42:46.876Z,12.72
2022-12-03T06:44:26.619Z,12.7
2022-12-03T06:46:06.389Z,12.72
2022-12-03T06:49:26.006Z,12.72
2022-12-03T06:51:05.681Z,12.7
2022-12-03T06:52:45.505Z,12.7
2022-12-03T06:54:25.201Z,12.71
2022-12-03T06:56:04.977Z,12.7
2022-12-03T06:59:24.572Z,12.72
2022-12-03T07:02:44.023Z,12.7
2022-12-03T07:06:03.628Z,12.73
2022-12-03T07:07:43.358Z,12.7
2022-12-03T07:09:23.181Z,12.73
2022-12-03T07:12:42.603Z,12.73
2022-12-03T07:14:22.420Z,12.72
2022-12-03T07:16:02.269Z,12.72
2022-12-03T07:17:42.009Z,12.7
2022-12-03T07:19:21.703Z,12.73
2022-12-03T07:22:41.248Z,12.7
2022-12-03T07:24:20.976Z,12.7
2022-12-03T07:26:00.715Z,12.7
2022-12-03T07:27:40.490Z,12.7
2022-12-03T07:29:20.320Z,12.73
2022-12-03T07:31:00.007Z,12.7
2022-12-03T07:32:39.769Z,12.7
2022-12-03T07:34:19.583Z,12.7
2022-12-03T07:35:59.307Z,12.7
2022-12-03T07:37:39.116Z,12.7
2022-12-03T07:39:18.894Z,12.72
2022-12-03T07:40:58.658Z,12.7
2022-12-03T07:42:38.353Z,12.71
2022-12-03T07:44:18.143Z,12.7
2022-12-03T07:45:57.881Z,12.7
2022-12-03T07:49:17.470Z,12.72
2022-12-03T07:50:57.220Z,12.71
2022-12-03T07:52:36.940Z,12.7
2022-12-03T07:54:16.750Z,12.71
2022-12-03T07:55:56.479Z,12.71
2022-12-03T07:57:36.296Z,12.71
2022-12-03T07:59:16.129Z,12.74
2022-12-03T08:00:55.758Z,12.73
2022-12-03T08:02:35.543Z,12.73
2022-12-03T08:04:15.334Z,12.7
2022-12-03T08:05:55.177Z,12.73
2022-12-03T08:07:34.867Z,12.72
2022-12-03T08:09:14.597Z,12.74
2022-12-03T08:10:54.438Z,12.73
2022-12-03T08:12:34.258Z,12.72
2022-12-03T08:14:14.043Z,12.72
2022-12-03T08:15:53.749Z,12.74
2022-12-03T08:17:33.493Z,12.74
2022-12-03T08:19:13.167Z,12.74
2022-12-03T08:20:52.917Z,12.74
2022-12-03T08:22:32.759Z,12.73
2022-12-03T08:24:12.451Z,12.75
2022-12-03T08:25:52.247Z,12.74
2022-12-03T08:27:32.108Z,12.72
2022-12-03T08:29:11.739Z,12.74
2022-12-03T08:34:11.041Z,12.75
2022-12-03T08:35:50.808Z,12.74
2022-12-03T08:37:30.559Z,12.73
2022-12-03T08:39:10.333Z,12.73
2022-12-03T08:40:50.096Z,12.74
2022-12-03T08:42:29.853Z,12.73
2022-12-03T08:44:09.624Z,12.73
2022-12-03T08:45:49.392Z,12.73
2022-12-03T08:47:29.153Z,12.76
2022-12-03T08:49:08.961Z,12.74
2022-12-03T08:50:48.719Z,12.75
2022-12-03T08:52:28.507Z,12.74
2022-12-03T08:54:08.268Z,12.76
2022-12-03T08:55:48.007Z,12.77
2022-12-03T08:57:27.734Z,12.78
2022-12-03T08:59:07.486Z,12.78
2022-12-03T09:00:47.308Z,12.78
2022-12-03T09:02:27.023Z,12.77
2022-12-03T09:04:06.777Z,12.78
2022-12-03T09:05:46.540Z,12.8
2022-12-03T09:07:26.473Z,12.8
2022-12-03T09:09:06.127Z,12.82
2022-12-03T09:12:25.594Z,12.84
2022-12-03T09:14:05.353Z,12.84
2022-12-03T09:15:45.122Z,12.85
2022-12-03T09:19:04.676Z,12.87
2022-12-03T09:20:44.435Z,12.88
2022-12-03T09:22:24.298Z,12.88
2022-12-03T09:24:03.940Z,12.89
2022-12-03T09:25:43.723Z,12.88
2022-12-03T09:27:23.622Z,12.87
2022-12-03T09:29:03.332Z,12.85
2022-12-03T09:30:43.012Z,12.86
2022-12-03T09:34:02.536Z,12.82
2022-12-03T09:35:42.416Z,12.81
2022-12-03T09:37:22.278Z,12.78
2022-12-03T09:39:01.936Z,12.79
2022-12-03T09:40:41.782Z,12.76
2022-12-03T09:42:21.347Z,12.77
2022-12-03T09:44:01.118Z,12.76
2022-12-03T09:45:40.911Z,12.77
2022-12-03T09:49:00.416Z,12.76
2022-12-03T09:50:40.171Z,12.75
2022-12-03T09:52:19.950Z,12.75
2022-12-03T09:53:59.709Z,12.76
2022-12-03T09:57:19.213Z,12.75
2022-12-03T09:58:58.985Z,12.73
2022-12-03T10:00:38.745Z,12.74
2022-12-03T10:05:38.065Z,12.73
2022-12-03T10:07:17.808Z,12.73
2022-12-03T10:08:57.558Z,12.73
2022-12-03T10:10:37.332Z,12.74
2022-12-03T10:13:56.855Z,12.75
2022-12-03T10:15:36.635Z,12.75
2022-12-03T10:18:56.164Z,12.72
2022-12-03T10:20:35.917Z,12.73
2022-12-03T10:22:15.676Z,12.74
2022-12-03T10:23:55.443Z,12.72
2022-12-03T10:25:35.217Z,12.73
2022-12-03T10:27:14.985Z,12.72
2022-12-03T10:28:54.748Z,12.72
2022-12-03T10:30:34.505Z,12.71
2022-12-03T10:32:14.278Z,12.72
2022-12-03T10:33:54.031Z,12.74
2022-12-03T10:35:33.791Z,12.73
2022-12-03T10:38:53.313Z,12.74
2022-12-03T10:40:33.083Z,12.74
2022-12-03T10:42:12.845Z,12.73
2022-12-03T10:43:52.613Z,12.72
2022-12-03T10:45:32.379Z,12.75
2022-12-03T10:47:12.142Z,12.72
2022-12-03T10:48:51.902Z,12.73
2022-12-03T10:50:31.671Z,12.72
2022-12-03T10:52:11.437Z,12.72
2022-12-03T10:53:51.197Z,12.71
2022-12-03T10:55:30.964Z,12.73
2022-12-03T10:57:10.763Z,12.73
2022-12-03T10:58:50.482Z,12.75
2022-12-03T11:00:30.253Z,12.75
2022-12-03T11:02:10.017Z,12.73
2022-12-03T11:03:49.772Z,12.76
2022-12-03T11:05:29.561Z,12.76
2022-12-03T11:07:09.316Z,12.75
2022-12-03T11:08:49.073Z,12.75
2022-12-03T11:10:28.828Z,12.74
2022-12-03T11:12:08.594Z,12.75
2022-12-03T11:13:48.366Z,12.74
2022-12-03T11:15:28.119Z,12.74
2022-12-03T11:17:07.884Z,12.75
2022-12-03T11:22:07.192Z,12.75
2022-12-03T11:23:47.007Z,12.74
2022-12-03T11:25:26.712Z,12.75
2022-12-03T11:27:06.462Z,12.75
2022-12-03T11:30:26.008Z,12.75
2022-12-03T11:32:05.767Z,12.73
2022-12-03T11:33:45.536Z,12.74
2022-12-03T11:35:25.346Z,12.72
2022-12-03T11:37:05.057Z,12.71
2022-12-03T11:38:44.816Z,12.71
2022-12-03T11:40:24.569Z,12.74
2022-12-03T11:42:04.341Z,12.74
2022-12-03T11:43:44.110Z,12.73
2022-12-03T11:45:23.857Z,12.72
2022-12-03T11:47:03.637Z,12.74
2022-12-03T11:48:43.396Z,12.73
2022-12-03T11:50:23.160Z,12.74
2022-12-03T11:52:02.937Z,12.74
2022-12-03T11:53:42.686Z,12.74
2022-12-03T11:55:22.453Z,12.74
2022-12-03T11:58:41.972Z,12.76
2022-12-03T12:00:21.745Z,12.72
2022-12-03T12:02:01.507Z,12.76
2022-12-03T12:03:41.286Z,12.74
2022-12-03T12:05:21.056Z,12.72
2022-12-03T12:07:00.799Z,12.73
2022-12-03T12:08:40.571Z,12.71
2022-12-03T12:10:20.336Z,12.73
2022-12-03T12:12:00.090Z,12.72
2022-12-03T12:13:39.863Z,12.72
2022-12-03T12:15:19.622Z,12.73
2022-12-03T12:18:39.159Z,12.74
2022-12-03T12:20:18.925Z,12.72
2022-12-03T12:21:58.675Z,12.72
2022-12-03T12:23:38.446Z,12.72
2022-12-03T12:25:18.209Z,12.73
2022-12-03T12:26:57.957Z,12.72
2022-12-03T12:28:37.722Z,12.71
2022-12-03T12:30:17.486Z,12.71
2022-12-03T12:31:57.261Z,12.73
2022-12-03T12:33:37.040Z,12.71
2022-12-03T12:36:56.571Z,12.71
2022-12-03T12:38:36.321Z,12.72
2022-12-03T12:40:16.126Z,12.71
2022-12-03T12:41:55.879Z,12.72
2022-12-03T12:45:15.385Z,12.71
2022-12-03T12:46:55.136Z,12.71
2022-12-03T12:48:34.893Z,12.72
2022-12-03T12:50:14.667Z,12.71
2022-12-03T12:51:54.419Z,12.71
2022-12-03T12:53:34.178Z,12.71
2022-12-03T12:55:13.941Z,12.74
2022-12-03T12:56:53.714Z,12.72
2022-12-03T12:58:33.478Z,12.71
2022-12-03T13:00:13.322Z,12.71
2022-12-03T13:01:53.014Z,12.74
2022-12-03T13:03:32.819Z,12.72
2022-12-03T13:05:12.542Z,12.71
2022-12-03T13:06:52.300Z,12.71
2022-12-03T13:08:32.055Z,12.72
2022-12-03T13:10:11.827Z,12.74
2022-12-03T13:11:51.580Z,12.71
2022-12-03T13:13:31.486Z,12.72
2022-12-03T13:15:11.128Z,12.71
2022-12-03T13:18:30.655Z,12.73
2022-12-03T13:20:10.477Z,12.71
2022-12-03T13:21:50.294Z,12.71
2022-12-03T13:23:29.933Z,12.71
2022-12-03T13:25:09.708Z,12.71
2022-12-03T13:26:49.565Z,12.72
2022-12-03T13:28:29.448Z,12.72
2022-12-03T13:31:48.764Z,12.71
2022-12-03T13:33:28.651Z,12.71
2022-12-03T13:35:08.443Z,12.73
2022-12-03T13:36:48.072Z,12.72
2022-12-03T13:38:27.877Z,12.7
2022-12-03T13:40:07.618Z,12.71
2022-12-03T13:41:47.418Z,12.72
2022-12-03T13:43:27.156Z,12.68
2022-12-03T13:45:07.023Z,12.7
2022-12-03T13:48:26.557Z,12.7
2022-12-03T13:50:06.327Z,12.69
2022-12-03T13:51:46.164Z,12.72
2022-12-03T13:53:25.921Z,12.69
2022-12-03T13:55:05.638Z,12.71
2022-12-03T13:56:45.346Z,12.7
2022-12-03T13:58:25.148Z,12.72
2022-12-03T14:00:04.872Z,12.69
2022-12-03T14:01:44.693Z,12.69
2022-12-03T14:03:24.531Z,12.69
2022-12-03T14:06:43.973Z,12.7
2022-12-03T14:08:23.715Z,12.72
2022-12-03T14:10:03.524Z,12.69
2022-12-03T14:11:43.258Z,12.69
2022-12-03T14:13:23.001Z,12.68
2022-12-03T14:15:02.777Z,12.69
2022-12-03T14:18:22.178Z,12.71
2022-12-03T14:20:01.944Z,12.69
2022-12-03T14:21:41.678Z,12.7
2022-12-03T14:23:21.571Z,12.68
2022-12-03T14:25:01.338Z,12.7
2022-12-03T14:28:20.777Z,12.7
2022-12-03T14:30:00.552Z,12.71
2022-12-03T14:31:40.354Z,12.72
2022-12-03T14:33:20.108Z,12.68
2022-12-03T14:34:59.883Z,12.7
2022-12-03T14:38:19.386Z,12.68
2022-12-03T14:39:59.239Z,12.69
2022-12-03T14:41:38.891Z,12.71
2022-12-03T14:43:18.647Z,12.7
2022-12-03T14:44:58.363Z,12.68
2022-12-03T14:48:17.953Z,12.68
2022-12-03T14:49:57.662Z,12.68
2022-12-03T14:51:37.484Z,12.68
2022-12-03T14:53:17.213Z,12.7
2022-12-03T14:54:57.166Z,12.68
2022-12-03T14:58:16.478Z,12.7
2022-12-03T14:59:56.406Z,12.7
2022-12-03T15:01:36.005Z,12.68
2022-12-03T15:03:15.867Z,12.69
2022-12-03T15:04:55.526Z,12.7
2022-12-03T15:06:35.284Z,12.68
2022-12-03T15:08:15.049Z,12.69
2022-12-03T15:09:55.029Z,12.68
2022-12-03T15:11:34.584Z,12.68
2022-12-03T15:13:14.448Z,12.67
2022-12-03T15:14:54.153Z,12.68
2022-12-03T15:16:34.017Z,12.68
2022-12-03T15:19:53.571Z,12.7
2022-12-03T15:21:33.347Z,12.68
2022-12-03T15:23:12.935Z,12.68
2022-12-03T15:24:52.858Z,12.67
2022-12-03T15:26:32.453Z,12.67
2022-12-03T15:28:12.385Z,12.67
2022-12-03T15:29:51.975Z,12.69
2022-12-03T15:31:31.751Z,12.68
2022-12-03T15:33:11.656Z,12.68
2022-12-03T15:34:51.540Z,12.7
2022-12-03T15:36:31.190Z,12.68
2022-12-03T15:38:10.988Z,12.69
2022-12-03T15:39:50.686Z,12.69
2022-12-03T15:41:30.334Z,12.69
2022-12-03T15:43:10.360Z,12.68
2022-12-03T15:44:50.012Z,12.7
2022-12-03T15:48:09.520Z,12.69
2022-12-03T15:49:49.290Z,12.67
2022-12-03T15:51:29.047Z,12.67
2022-12-03T15:53:08.781Z,12.67
2022-12-03T15:54:48.540Z,12.69
2022-12-03T15:58:08.168Z,12.67
2022-12-03T15:59:47.880Z,12.67
2022-12-03T16:01:27.717Z,12.67
2022-12-03T16:03:07.357Z,12.69
2022-12-03T16:04:47.230Z,12.67
2022-12-03T16:06:26.796Z,12.67
2022-12-03T16:08:06.555Z,12.68
2022-12-03T16:11:26.181Z,12.67
2022-12-03T16:13:05.847Z,12.7
2022-12-03T16:14:45.787Z,12.69
2022-12-03T16:18:05.131Z,12.67
2022-12-03T16:19:45.046Z,12.68
2022-12-03T16:21:24.767Z,12.68
2022-12-03T16:23:04.426Z,12.67
2022-12-03T16:24:44.229Z,12.68
2022-12-03T16:28:03.844Z,12.67
2022-12-03T16:29:43.527Z,12.71
2022-12-03T16:31:23.358Z,12.7
2022-12-03T16:33:03.260Z,12.67
2022-12-03T16:34:42.900Z,12.67
2022-12-03T16:36:22.638Z,12.69
2022-12-03T16:38:02.306Z,12.69
2022-12-03T16:39:42.207Z,12.67
2022-12-03T16:41:22.049Z,12.67
2022-12-03T16:43:01.733Z,12.67
2022-12-03T16:44:41.495Z,12.69
2022-12-03T16:48:01.048Z,12.68
2022-12-03T16:49:40.758Z,12.67
2022-12-03T16:51:20.563Z,12.67
2022-12-03T16:53:00.292Z,12.67
2022-12-03T16:54:40.029Z,12.69
2022-12-03T16:56:19.912Z,12.69
2022-12-03T16:57:59.591Z,12.67
2022-12-03T16:59:39.290Z,12.68
2022-12-03T17:01:18.994Z,12.7
2022-12-03T17:02:58.923Z,12.69
2022-12-03T17:04:38.580Z,12.67
2022-12-03T17:06:18.279Z,12.69
2022-12-03T17:09:37.945Z,12.69
2022-12-03T17:11:17.705Z,12.66
2022-12-03T17:12:57.380Z,12.67
2022-12-03T17:14:37.108Z,12.67
2022-12-03T17:17:56.842Z,12.67
2022-12-03T17:19:36.568Z,12.67
2022-12-03T17:21:16.317Z,12.67
2022-12-03T17:22:56.080Z,12.69
2022-12-03T17:24:35.685Z,12.68
2022-12-03T17:26:15.570Z,12.69
2022-12-03T17:27:55.335Z,12.66
2022-12-03T17:29:35.134Z,12.66
2022-12-03T17:31:14.875Z,12.67
2022-12-03T17:32:54.692Z,12.66
2022-12-03T17:34:34.417Z,12.67
2022-12-03T17:36:14.212Z,12.66
2022-12-03T17:37:53.799Z,12.66
2022-12-03T17:39:33.647Z,12.67
2022-12-03T17:41:13.489Z,12.68
2022-12-03T17:42:53.203Z,12.68
2022-12-03T17:44:32.862Z,12.66
2022-12-03T17:46:12.726Z,12.68
2022-12-03T17:47:52.608Z,12.67
2022-12-03T17:49:32.237Z,12.69
2022-12-03T17:51:12.086Z,12.66
2022-12-03T17:52:51.680Z,12.68
2022-12-03T17:54:31.572Z,12.66
2022-12-03T17:57:51.091Z,12.66
2022-12-03T17:59:30.885Z,12.69
2022-12-03T18:01:10.664Z,12.68
2022-12-03T18:02:50.411Z,12.66
2022-12-03T18:04:30.181Z,12.7
2022-12-03T18:06:09.943Z,12.66
2022-12-03T18:07:49.589Z,12.68
2022-12-03T18:09:29.304Z,12.67
2022-12-03T18:11:09.128Z,12.66
2022-12-03T18:12:48.908Z,12.69
2022-12-03T18:14:28.755Z,12.66
2022-12-03T18:17:48.140Z,12.66
2022-12-03T18:19:27.914Z,12.69
2022-12-03T18:21:07.791Z,12.66
2022-12-03T18:22:47.536Z,12.66
2022-12-03T18:24:27.289Z,12.66
2022-12-03T18:26:06.982Z,12.66
2022-12-03T18:27:46.808Z,12.68
2022-12-03T18:29:26.588Z,12.69
2022-12-03T18:31:06.247Z,12.68
2022-12-03T18:32:46.013Z,12.68
2022-12-03T18:34:25.786Z,12.67
2022-12-03T18:37:45.303Z,12.68
2022-12-03T18:39:25.085Z,12.66
2022-12-03T18:41:04.876Z,12.66
2022-12-03T18:42:44.679Z,12.67
2022-12-03T18:44:24.467Z,12.66
2022-12-03T18:46:04.284Z,12.68
2022-12-03T18:47:43.959Z,12.66
2022-12-03T18:49:23.872Z,12.67
2022-12-03T18:51:03.523Z,12.68
2022-12-03T18:54:22.965Z,12.67
2022-12-03T18:56:02.738Z,12.68
2022-12-03T18:57:42.493Z,12.66
2022-12-03T19:01:02.145Z,12.66
2022-12-03T19:02:41.836Z,12.66
2022-12-03T19:04:21.749Z,12.68
2022-12-03T19:06:01.459Z,12.66
2022-12-03T19:07:41.238Z,12.66
2022-12-03T19:09:20.930Z,12.65
2022-12-03T19:11:00.735Z,12.66
2022-12-03T19:12:40.486Z,12.66
2022-12-03T19:14:20.236Z,12.65
2022-12-03T19:15:59.973Z,12.66
2022-12-03T19:17:39.675Z,12.67
2022-12-03T19:19:19.386Z,12.66
2022-12-03T19:20:59.304Z,12.66
2022-12-03T19:22:38.994Z,12.67
2022-12-03T19:24:18.736Z,12.67
2022-12-03T19:25:58.487Z,12.68
2022-12-03T19:27:38.345Z,12.67
2022-12-03T19:29:17.978Z,12.67
2022-12-03T19:30:57.843Z,12.66
2022-12-03T19:32:37.574Z,12.68
2022-12-03T19:34:17.409Z,12.67
2022-12-03T19:35:57.130Z,12.67
2022-12-03T19:37:36.906Z,12.66
2022-12-03T19:39:16.680Z,12.67
2022-12-03T19:40:56.329Z,12.67
2022-12-03T19:42:36.169Z,12.66
2022-12-03T19:44:16.046Z,12.67
2022-12-03T19:47:35.453Z,12.67
2022-12-03T19:49:15.250Z,12.68
2022-12-03T19:50:54.904Z,12.67
2022-12-03T19:52:34.800Z,12.65
2022-12-03T19:54:14.514Z,12.66
2022-12-03T19:55:54.256Z,12.65
2022-12-03T19:57:33.967Z,12.65
2022-12-03T19:59:13.848Z,12.65
2022-12-03T20:00:53.574Z,12.68
2022-12-03T20:04:13.090Z,12.65
2022-12-03T20:07:32.606Z,12.67
2022-12-03T20:09:12.394Z,12.67
2022-12-03T20:12:31.905Z,12.66
2022-12-03T20:14:11.757Z,12.65
2022-12-03T20:15:51.378Z,12.65
2022-12-03T20:17:31.125Z,12.65
2022-12-03T20:19:10.889Z,12.65
2022-12-03T20:20:50.654Z,12.65
2022-12-03T20:22:30.541Z,12.65
2022-12-03T20:24:10.179Z,12.65
2022-12-03T20:25:49.948Z,12.65
2022-12-03T20:27:29.692Z,12.65
2022-12-03T20:29:09.555Z,12.67
2022-12-03T20:30:49.240Z,12.65
2022-12-03T20:32:29.169Z,12.66
2022-12-03T20:34:08.828Z,12.65
2022-12-03T20:37:28.299Z,12.65
2022-12-03T20:39:08.056Z,12.67
2022-12-03T20:40:47.950Z,12.65
2022-12-03T20:44:07.467Z,12.67
2022-12-03T20:45:47.105Z,12.65
2022-12-03T20:47:26.995Z,12.65
2022-12-03T20:49:06.712Z,12.65
2022-12-03T20:50:46.513Z,12.65
2022-12-03T20:52:26.274Z,12.68
2022-12-03T20:54:05.976Z,12.65
2022-12-03T20:57:25.563Z,12.67
2022-12-03T20:59:05.212Z,12.65
2022-12-03T21:02:24.752Z,12.64
2022-12-03T21:05:44.269Z,12.66
2022-12-03T21:07:24.089Z,12.65
2022-12-03T21:09:03.807Z,12.65
2022-12-03T21:10:43.576Z,12.65
2022-12-03T21:12:23.356Z,12.65
2022-12-03T21:14:03.164Z,12.65
2022-12-03T21:17:22.716Z,12.65
2022-12-03T21:19:02.380Z,12.66
2022-12-03T21:20:42.141Z,12.65
2022-12-03T21:22:22.023Z,12.64
2022-12-03T21:24:01.738Z,12.65
2022-12-03T21:27:21.262Z,12.64
2022-12-03T21:30:40.843Z,12.64
2022-12-03T21:35:40.015Z,12.64
2022-12-03T21:37:19.866Z,12.66
2022-12-03T21:38:59.637Z,12.66
2022-12-03T21:40:39.325Z,12.66
2022-12-03T21:42:19.080Z,12.66
2022-12-03T21:43:58.944Z,12.66
2022-12-03T21:45:38.607Z,12.64
2022-12-03T21:47:18.546Z,12.65
2022-12-03T21:48:58.136Z,12.66
2022-12-03T21:50:37.885Z,12.65
2022-12-03T21:52:17.666Z,12.65
2022-12-03T21:53:57.438Z,12.66
2022-12-03T21:55:37.179Z,12.64
2022-12-03T21:57:17.022Z,12.66
2022-12-03T21:58:56.789Z,12.65
2022-12-03T22:00:36.573Z,12.64
2022-12-03T22:02:16.272Z,12.65
2022-12-03T22:03:56.080Z,12.64
2022-12-03T22:05:35.891Z,12.64
2022-12-03T22:07:15.538Z,12.66
2022-12-03T22:08:55.356Z,12.66
2022-12-03T22:10:35.061Z,12.64
2022-12-03T22:12:14.826Z,12.63
2022-12-03T22:13:54.607Z,12.66
2022-12-03T22:15:34.566Z,12.64
2022-12-03T22:17:14.140Z,12.65
2022-12-03T22:18:53.924Z,12.64
2022-12-03T22:20:33.702Z,12.63
2022-12-03T22:22:13.488Z,12.66
2022-12-03T22:23:53.228Z,12.65
2022-12-03T22:25:32.999Z,12.67
2022-12-03T22:27:12.724Z,12.64
2022-12-03T22:28:52.534Z,12.64
2022-12-03T22:30:32.300Z,12.66
2022-12-03T22:32:12.010Z,12.64
2022-12-03T22:33:51.770Z,12.64
2022-12-03T22:37:11.367Z,12.66
2022-12-03T22:38:51.124Z,12.67
2022-12-03T22:40:30.838Z,12.66
2022-12-03T22:42:10.803Z,12.64
2022-12-03T22:43:50.511Z,12.64
2022-12-03T22:45:30.250Z,12.64
2022-12-03T22:47:09.893Z,12.64
2022-12-03T22:48:49.713Z,12.64
2022-12-03T22:50:29.453Z,12.66
2022-12-03T22:52:09.348Z,12.64
2022-12-03T22:53:49.010Z,12.64
2022-12-03T22:55:28.731Z,12.66
2022-12-03T22:58:48.367Z,12.64
2022-12-03T23:00:28.099Z,12.64
2022-12-03T23:02:07.836Z,12.64
2022-12-03T23:03:47.524Z,12.64
2022-12-03T23:05:27.389Z,12.65
2022-12-03T23:07:07.095Z,12.66
2022-12-03T23:08:46.796Z,12.64
2022-12-03T23:10:26.660Z,12.64
2022-12-03T23:12:06.490Z,12.65
2022-12-03T23:13:46.229Z,12.68
2022-12-03T23:15:25.846Z,12.63
2022-12-03T23:17:05.658Z,12.66
2022-12-03T23:18:45.417Z,12.64
2022-12-03T23:20:25.186Z,12.66
2022-12-03T23:22:04.949Z,12.66
2022-12-03T23:23:44.738Z,12.64
2022-12-03T23:25:24.443Z,12.65
2022-12-03T23:27:04.194Z,12.64
2022-12-03T23:28:44.056Z,12.65
2022-12-03T23:30:23.872Z,12.64
2022-12-03T23:32:03.505Z,12.65
2022-12-03T23:33:43.296Z,12.64
2022-12-03T23:35:23.012Z,12.66
2022-12-03T23:37:02.913Z,12.63
2022-12-03T23:40:22.315Z,12.64
2022-12-03T23:42:02.066Z,12.64
2022-12-03T23:43:41.844Z,12.63
2022-12-03T23:45:21.591Z,12.66
2022-12-03T23:48:41.207Z,12.65
2022-12-03T23:50:20.934Z,12.64